Time;durP1;ratioP1;P1;durP2;ratioP2;P2;SDS_P1;SDS_P2;PMS_P1;PMS_P2;Temp;Humidity;BMP_temperature;BMP_pressure;BME280_temperature;BME280_humidity;BME280_pressure;Samples;Min_cycle;Max_cycle;Signal;HPM_P1;HPM_P2
2023/07/02 00:01:25;;;;;;;0.30;0.30;;;18.40;99.90;;;;;;4441687;32;20096;-77
2023/07/02 00:03:51;;;;;;;0.73;0.68;;;18.40;99.90;;;;;;4443660;32;20105;-76
2023/07/02 00:06:17;;;;;;;1.02;0.52;;;18.40;99.90;;;;;;4438002;32;20156;-76
2023/07/02 00:08:42;;;;;;;0.30;0.30;;;18.40;99.90;;;;;;4440650;32;20109;-75
2023/07/02 00:11:12;;;;;;;0.30;0.30;;;18.40;99.90;;;;;;4439426;32;20085;-74
2023/07/02 00:13:38;;;;;;;0.25;0.25;;;18.40;99.90;;;;;;4437380;32;20073;-74
2023/07/02 00:16:04;;;;;;;0.40;0.40;;;18.40;99.90;;;;;;4436539;32;20105;-75
2023/07/02 00:18:35;;;;;;;0.20;0.20;;;18.40;99.90;;;;;;4443568;32;20127;-75
2023/07/02 00:21:02;;;;;;;0.30;0.30;;;18.40;99.90;;;;;;4439356;32;20489;-77
2023/07/02 00:23:30;;;;;;;0.30;0.30;;;18.40;99.90;;;;;;4442362;32;20073;-75
2023/07/02 00:25:56;;;;;;;0.40;0.40;;;18.40;99.90;;;;;;4439432;32;20166;-77
2023/07/02 00:28:23;;;;;;;0.30;0.30;;;18.30;99.90;;;;;;4444031;32;20060;-75
2023/07/02 00:30:49;;;;;;;0.32;0.32;;;18.40;99.90;;;;;;4443266;32;20080;-76
2023/07/02 00:33:20;;;;;;;0.35;0.35;;;18.40;99.90;;;;;;4441460;32;20081;-77
2023/07/02 00:35:46;;;;;;;0.30;0.30;;;18.40;99.90;;;;;;4438055;32;20090;-75
2023/07/02 00:38:11;;;;;;;0.40;0.40;;;18.40;99.90;;;;;;4437040;32;20061;-76
2023/07/02 00:40:38;;;;;;;0.35;0.35;;;18.40;99.90;;;;;;4437744;32;20156;-76
2023/07/02 00:43:04;;;;;;;0.30;0.30;;;18.40;99.90;;;;;;4438340;32;20082;-75
2023/07/02 00:45:31;;;;;;;0.65;0.40;;;18.30;99.90;;;;;;4440780;32;20073;-77
2023/07/02 00:47:56;;;;;;;0.55;0.55;;;18.30;99.90;;;;;;4441269;32;20069;-77
2023/07/02 00:50:24;;;;;;;0.70;0.50;;;18.30;99.90;;;;;;4438150;32;20057;-79
2023/07/02 00:52:50;;;;;;;0.30;0.30;;;18.30;99.90;;;;;;4439818;32;20068;-77
2023/07/02 00:55:16;;;;;;;0.73;0.73;;;18.30;99.90;;;;;;4446979;32;20090;-76
2023/07/02 00:57:46;;;;;;;0.30;0.30;;;18.40;99.90;;;;;;4443094;32;20084;-75
2023/07/02 01:00:13;;;;;;;0.93;0.40;;;18.30;99.90;;;;;;4443275;32;20049;-79
2023/07/02 01:02:42;;;;;;;0.30;0.30;;;18.30;99.90;;;;;;4440234;32;20404;-77
2023/07/02 01:05:09;;;;;;;0.30;0.30;;;18.30;99.90;;;;;;4441096;32;20101;-77
2023/07/02 01:07:34;;;;;;;0.40;0.40;;;18.30;99.90;;;;;;4440325;32;20097;-77
2023/07/02 01:10:00;;;;;;;0.60;0.60;;;18.30;99.90;;;;;;4440400;32;20089;-76
2023/07/02 01:12:26;;;;;;;0.30;0.30;;;18.30;99.90;;;;;;4446781;32;20106;-76
2023/07/02 01:14:56;;;;;;;0.30;0.30;;;18.20;99.90;;;;;;4440470;32;20431;-76
2023/07/02 01:17:23;;;;;;;0.97;0.93;;;18.30;99.90;;;;;;4438303;32;20167;-76
2023/07/02 01:19:51;;;;;;;0.47;0.47;;;18.30;99.90;;;;;;4437205;32;20053;-75
2023/07/02 01:22:19;;;;;;;0.30;0.30;;;18.30;99.90;;;;;;4444512;32;20089;-79
2023/07/02 01:24:47;;;;;;;0.45;0.45;;;18.30;99.90;;;;;;4440569;32;20061;-77
2023/07/02 01:27:13;;;;;;;0.30;0.30;;;18.30;99.90;;;;;;4443994;32;20096;-78
2023/07/02 01:29:39;;;;;;;1.98;0.68;;;18.20;99.90;;;;;;4443921;32;20093;-76
2023/07/02 01:32:04;;;;;;;2.17;0.40;;;18.10;99.90;;;;;;4443682;32;20085;-76
2023/07/02 01:34:30;;;;;;;0.35;0.35;;;18.20;99.90;;;;;;4442190;32;20122;-75
2023/07/02 01:36:56;;;;;;;0.40;0.40;;;18.20;99.90;;;;;;4440681;32;20068;-78
2023/07/02 01:39:27;;;;;;;0.52;0.52;;;18.20;99.90;;;;;;4443189;32;20085;-77
2023/07/02 01:41:54;;;;;;;0.50;0.50;;;18.10;99.90;;;;;;4439866;32;20085;-77
2023/07/02 01:44:21;;;;;;;0.30;0.30;;;18.10;99.90;;;;;;4440997;32;20078;-78
2023/07/02 01:46:48;;;;;;;0.57;0.57;;;18.10;99.90;;;;;;4437567;32;20471;-76
2023/07/02 01:49:16;;;;;;;0.57;0.57;;;18.10;99.90;;;;;;4439501;32;20089;-76
2023/07/02 01:51:48;;;;;;;0.43;0.43;;;18.00;99.90;;;;;;4440825;32;20159;-77
2023/07/02 01:54:16;;;;;;;2.70;0.62;;;18.00;99.90;;;;;;4437187;32;20217;-76
2023/07/02 01:56:42;;;;;;;0.80;0.40;;;18.00;99.90;;;;;;4435170;32;20065;-77
2023/07/02 01:59:07;;;;;;;0.40;0.40;;;17.90;99.90;;;;;;4438804;32;20954;-75
2023/07/02 02:01:33;;;;;;;0.40;0.40;;;17.90;99.90;;;;;;4438407;32;20089;-78
2023/07/02 02:03:58;;;;;;;0.30;0.30;;;17.90;99.90;;;;;;4440851;32;20068;-78
2023/07/02 02:06:24;;;;;;;0.30;0.30;;;17.90;99.90;;;;;;4444942;32;20089;-77
2023/07/02 02:08:49;;;;;;;1.75;0.60;;;17.90;99.90;;;;;;4446241;32;20057;-76
2023/07/02 02:11:15;;;;;;;0.47;0.47;;;17.90;99.90;;;;;;4441521;32;20088;-77
2023/07/02 02:13:40;;;;;;;0.40;0.40;;;18.00;99.90;;;;;;4441476;32;20109;-76
2023/07/02 02:16:06;;;;;;;0.47;0.47;;;17.90;99.90;;;;;;4440005;32;20094;-76
2023/07/02 02:18:32;;;;;;;0.40;0.40;;;18.00;99.90;;;;;;4443465;32;20105;-75
2023/07/02 02:20:57;;;;;;;0.40;0.40;;;18.00;99.90;;;;;;4442120;32;20100;-76
2023/07/02 02:23:23;;;;;;;0.40;0.40;;;17.90;99.90;;;;;;4443234;32;20069;-76
2023/07/02 02:25:48;;;;;;;0.30;0.30;;;17.90;99.90;;;;;;4437533;32;20101;-76
2023/07/02 02:28:14;;;;;;;0.32;0.32;;;17.70;99.90;;;;;;4440632;32;20086;-76
2023/07/02 02:30:39;;;;;;;2.53;0.60;;;17.80;99.90;;;;;;4438290;32;20131;-76
2023/07/02 02:33:05;;;;;;;0.30;0.30;;;17.80;99.90;;;;;;4438785;32;20211;-77
2023/07/02 02:35:30;;;;;;;0.40;0.40;;;17.70;99.90;;;;;;4437176;32;20120;-75
2023/07/02 02:37:55;;;;;;;0.30;0.30;;;17.70;99.90;;;;;;4441567;32;20113;-75
2023/07/02 02:40:28;;;;;;;0.80;0.52;;;17.70;99.90;;;;;;4447051;32;20077;-75
2023/07/02 02:42:54;;;;;;;0.30;0.30;;;17.70;99.90;;;;;;4441641;32;20406;-76
2023/07/02 02:45:19;;;;;;;0.95;0.40;;;17.70;99.90;;;;;;4442010;32;20124;-77
2023/07/02 02:47:46;;;;;;;0.47;0.47;;;17.70;99.90;;;;;;4445748;32;20085;-75
2023/07/02 02:50:13;;;;;;;0.40;0.40;;;17.70;99.90;;;;;;4438047;32;20096;-75
2023/07/02 02:52:38;;;;;;;0.47;0.47;;;17.70;99.90;;;;;;4437518;32;20061;-76
2023/07/02 02:55:06;;;;;;;0.30;0.30;;;17.60;99.90;;;;;;4444676;32;20168;-76
2023/07/02 02:57:32;;;;;;;1.75;1.02;;;17.60;99.90;;;;;;4441636;32;20090;-75
2023/07/02 02:59:58;;;;;;;0.40;0.40;;;17.60;99.90;;;;;;4440932;32;20077;-76
2023/07/02 03:02:23;;;;;;;0.28;0.28;;;17.50;99.90;;;;;;4439881;32;20105;-76
2023/07/02 03:04:49;;;;;;;0.60;0.60;;;17.60;99.90;;;;;;4443537;32;20097;-79
2023/07/02 03:07:15;;;;;;;0.45;0.45;;;17.60;99.90;;;;;;4439680;32;20137;-76
2023/07/02 03:09:41;;;;;;;0.30;0.30;;;17.60;99.90;;;;;;4440286;32;20119;-77
2023/07/02 03:12:07;;;;;;;0.37;0.37;;;17.60;99.90;;;;;;4439897;32;20073;-76
2023/07/02 03:14:32;;;;;;;0.30;0.30;;;17.50;99.90;;;;;;4436961;32;20121;-74
2023/07/02 03:16:58;;;;;;;0.40;0.40;;;17.60;99.90;;;;;;4434498;32;20065;-77
2023/07/02 03:19:24;;;;;;;0.30;0.30;;;17.60;99.90;;;;;;4436839;32;20068;-76
2023/07/02 03:21:51;;;;;;;0.40;0.40;;;17.60;99.90;;;;;;4434524;32;20065;-76
2023/07/02 03:24:17;;;;;;;0.40;0.40;;;17.60;99.90;;;;;;4438603;32;20137;-77
2023/07/02 03:26:44;;;;;;;0.40;0.40;;;17.60;99.90;;;;;;4436605;32;20450;-77
2023/07/02 03:29:10;;;;;;;0.40;0.40;;;17.60;99.90;;;;;;4436888;32;20583;-76
2023/07/02 03:31:35;;;;;;;0.60;0.60;;;17.70;99.90;;;;;;4435056;32;20461;-77
2023/07/02 03:34:05;;;;;;;0.40;0.40;;;17.60;99.90;;;;;;4436153;32;20069;-75
2023/07/02 03:36:31;;;;;;;0.45;0.45;;;17.60;99.90;;;;;;4434752;32;20078;-77
2023/07/02 03:38:57;;;;;;;0.37;0.37;;;17.50;99.90;;;;;;4432680;32;20080;-76
2023/07/02 03:41:22;;;;;;;0.40;0.40;;;17.50;99.90;;;;;;4435258;32;20088;-75
2023/07/02 03:43:48;;;;;;;0.40;0.40;;;17.60;99.90;;;;;;4434244;32;20408;-75
2023/07/02 03:46:14;;;;;;;0.28;0.28;;;17.50;99.90;;;;;;4434144;32;20062;-75
2023/07/02 03:48:39;;;;;;;0.30;0.30;;;17.50;99.90;;;;;;4435278;32;20516;-75
2023/07/02 03:51:05;;;;;;;1.75;0.57;;;17.50;99.90;;;;;;4436014;32;20086;-76
2023/07/02 03:53:31;;;;;;;0.40;0.40;;;17.40;99.90;;;;;;4438755;32;20068;-75
2023/07/02 03:55:57;;;;;;;0.40;0.40;;;17.50;99.90;;;;;;4438043;32;20105;-76
2023/07/02 03:58:22;;;;;;;0.30;0.30;;;17.50;99.90;;;;;;4437719;32;20124;-76
2023/07/02 04:00:49;;;;;;;1.05;0.73;;;17.60;99.90;;;;;;4437354;32;20140;-76
2023/07/02 04:03:16;;;;;;;6.03;0.73;;;17.50;99.90;;;;;;4437941;32;20651;-77
2023/07/02 04:05:42;;;;;;;1.55;0.55;;;17.60;99.90;;;;;;4435854;32;20073;-76
2023/07/02 04:08:07;;;;;;;1.45;0.47;;;17.50;99.90;;;;;;4435112;32;20080;-76
2023/07/02 04:10:33;;;;;;;1.02;0.98;;;17.40;99.90;;;;;;4434207;32;20442;-78
2023/07/02 04:12:58;;;;;;;0.40;0.40;;;17.50;99.90;;;;;;4431989;32;20076;-76
2023/07/02 04:15:25;;;;;;;0.50;0.50;;;17.40;99.90;;;;;;4434273;32;20072;-76
2023/07/02 04:17:51;;;;;;;0.32;0.32;;;17.50;99.90;;;;;;4433358;32;20407;-76
2023/07/02 04:20:18;;;;;;;0.30;0.30;;;17.40;99.90;;;;;;4437374;32;20143;-76
2023/07/02 04:22:45;;;;;;;0.60;0.40;;;17.50;99.90;;;;;;4437191;32;20061;-76
2023/07/02 04:25:15;;;;;;;0.30;0.30;;;17.50;99.90;;;;;;4439241;32;20073;-76
2023/07/02 04:27:41;;;;;;;0.30;0.30;;;17.50;99.90;;;;;;4438896;32;20143;-78
2023/07/02 04:30:08;;;;;;;0.30;0.30;;;17.40;99.90;;;;;;4442740;32;21002;-76
2023/07/02 04:32:33;;;;;;;0.40;0.40;;;17.50;99.90;;;;;;4437898;32;20104;-77
2023/07/02 04:35:01;;;;;;;0.30;0.30;;;17.50;99.90;;;;;;4438990;32;20462;-76
2023/07/02 04:37:28;;;;;;;0.30;0.30;;;17.40;99.90;;;;;;4439348;32;20113;-76
2023/07/02 04:39:54;;;;;;;0.25;0.25;;;17.50;99.90;;;;;;4444401;32;20093;-76
2023/07/02 04:42:19;;;;;;;0.30;0.30;;;17.50;99.90;;;;;;4441915;32;20116;-78
2023/07/02 04:44:51;;;;;;;0.50;0.50;;;17.60;99.90;;;;;;4447972;32;20081;-77
2023/07/02 04:47:16;;;;;;;0.80;0.77;;;17.60;99.90;;;;;;4441049;32;20535;-77
2023/07/02 04:49:42;;;;;;;0.50;0.50;;;17.60;99.90;;;;;;4444883;32;20096;-78
2023/07/02 04:52:07;;;;;;;0.40;0.40;;;17.60;99.90;;;;;;4437981;32;20093;-77
2023/07/02 04:54:33;;;;;;;0.30;0.30;;;17.60;99.90;;;;;;4444690;32;20081;-76
2023/07/02 04:56:58;;;;;;;0.50;0.50;;;17.70;99.90;;;;;;4438647;32;20072;-76
2023/07/02 04:59:24;;;;;;;0.35;0.35;;;17.70;99.90;;;;;;4446190;32;20175;-76
2023/07/02 05:01:50;;;;;;;0.90;0.40;;;17.70;99.90;;;;;;4438042;32;20176;-77
2023/07/02 05:04:15;;;;;;;0.30;0.30;;;17.70;99.90;;;;;;4439844;32;20102;-75
2023/07/02 05:06:41;;;;;;;1.08;0.50;;;17.70;99.90;;;;;;4436686;32;20143;-76
2023/07/02 05:09:08;;;;;;;0.40;0.40;;;17.70;99.90;;;;;;4444922;32;20069;-78
2023/07/02 05:11:34;;;;;;;0.50;0.50;;;17.70;99.90;;;;;;4449832;32;20124;-77
2023/07/02 05:14:00;;;;;;;0.35;0.35;;;17.80;99.90;;;;;;4438930;32;20081;-77
2023/07/02 05:16:26;;;;;;;0.20;0.20;;;17.80;99.90;;;;;;4440231;32;20077;-76
2023/07/02 05:18:51;;;;;;;0.40;0.40;;;17.80;99.90;;;;;;4442768;32;20098;-76
2023/07/02 05:21:18;;;;;;;0.40;0.40;;;17.90;99.90;;;;;;4432180;32;20069;-76
2023/07/02 05:23:44;;;;;;;0.90;0.70;;;17.90;99.90;;;;;;4438268;32;20085;-76
2023/07/02 05:26:09;;;;;;;0.60;0.60;;;18.00;99.90;;;;;;4439961;32;20560;-76
2023/07/02 05:28:36;;;;;;;0.60;0.60;;;18.00;99.90;;;;;;4437360;32;20552;-76
2023/07/02 05:31:01;;;;;;;0.40;0.40;;;18.00;99.90;;;;;;4430598;32;20153;-76
2023/07/02 05:33:26;;;;;;;0.30;0.30;;;17.90;99.90;;;;;;4434819;32;20131;-75
2023/07/02 05:35:53;;;;;;;0.30;0.30;;;17.90;99.90;;;;;;4435365;32;20513;-76
2023/07/02 05:38:19;;;;;;;0.85;0.57;;;17.90;99.90;;;;;;4440643;32;20101;-75
2023/07/02 05:40:46;;;;;;;0.40;0.40;;;18.00;99.90;;;;;;4435841;32;20060;-76
2023/07/02 05:43:11;;;;;;;0.37;0.37;;;18.10;99.90;;;;;;4439488;32;20069;-78
2023/07/02 05:45:37;;;;;;;0.30;0.30;;;18.20;99.90;;;;;;4437480;32;20636;-75
2023/07/02 05:48:03;;;;;;;0.50;0.50;;;18.30;99.90;;;;;;4438356;32;20208;-75
2023/07/02 05:50:28;;;;;;;0.30;0.30;;;18.10;99.90;;;;;;4440884;32;20097;-75
2023/07/02 05:52:54;;;;;;;0.45;0.45;;;18.00;99.90;;;;;;4442621;32;20097;-78
2023/07/02 05:55:19;;;;;;;0.85;0.85;;;17.90;99.90;;;;;;4442863;32;20085;-76
2023/07/02 05:57:45;;;;;;;0.50;0.50;;;17.90;99.90;;;;;;4444501;32;20076;-77
2023/07/02 06:00:12;;;;;;;0.30;0.30;;;18.00;99.90;;;;;;4441320;32;20064;-76
2023/07/02 06:02:37;;;;;;;7.22;0.52;;;18.00;99.90;;;;;;4439118;32;20093;-76
2023/07/02 06:05:04;;;;;;;0.30;0.30;;;18.10;99.90;;;;;;4438035;32;20135;-75
2023/07/02 06:07:30;;;;;;;0.30;0.30;;;18.20;99.90;;;;;;4441640;32;20085;-76
2023/07/02 06:09:56;;;;;;;0.85;0.60;;;18.30;99.90;;;;;;4441124;32;20108;-77
2023/07/02 06:12:22;;;;;;;0.80;0.68;;;18.30;99.90;;;;;;4442530;32;20081;-77
2023/07/02 06:14:48;;;;;;;0.40;0.40;;;18.40;99.90;;;;;;4439240;32;20097;-76
2023/07/02 06:17:15;;;;;;;0.37;0.37;;;18.50;99.90;;;;;;4439444;32;21239;-76
2023/07/02 06:19:44;;;;;;;0.40;0.40;;;18.60;99.90;;;;;;4438216;32;20088;-76
2023/07/02 06:22:10;;;;;;;0.30;0.30;;;18.70;99.90;;;;;;4434807;32;20133;-77
2023/07/02 06:24:35;;;;;;;0.40;0.40;;;18.60;99.90;;;;;;4441784;32;20089;-76
2023/07/02 06:27:01;;;;;;;0.40;0.40;;;18.60;99.90;;;;;;4439674;32;20096;-76
2023/07/02 06:29:28;;;;;;;0.30;0.30;;;18.60;99.90;;;;;;4440749;32;20057;-76
2023/07/02 06:31:53;;;;;;;0.30;0.30;;;18.70;99.90;;;;;;4434838;32;20138;-77
2023/07/02 06:34:20;;;;;;;0.35;0.35;;;18.60;99.90;;;;;;4439847;32;20065;-76
2023/07/02 06:36:45;;;;;;;0.32;0.32;;;18.60;99.90;;;;;;4438724;32;20093;-76
2023/07/02 06:39:11;;;;;;;0.47;0.47;;;18.60;99.90;;;;;;4436149;32;20369;-77
2023/07/02 06:41:37;;;;;;;0.50;0.50;;;18.60;99.90;;;;;;4440269;32;20182;-76
2023/07/02 06:44:03;;;;;;;0.60;0.60;;;18.50;99.90;;;;;;4436897;32;20106;-76
2023/07/02 06:46:29;;;;;;;0.45;0.45;;;18.50;99.90;;;;;;4440174;32;20092;-76
2023/07/02 06:49:01;;;;;;;0.60;0.60;;;18.60;99.90;;;;;;4441899;32;20084;-75
2023/07/02 06:51:28;;;;;;;0.30;0.30;;;18.60;99.90;;;;;;4436006;32;20133;-77
2023/07/02 06:53:54;;;;;;;0.40;0.40;;;18.70;99.90;;;;;;4439245;32;20121;-76
2023/07/02 06:56:20;;;;;;;0.40;0.40;;;18.80;99.90;;;;;;4438757;32;20097;-76
2023/07/02 06:58:45;;;;;;;0.30;0.30;;;18.90;99.90;;;;;;4440981;32;20443;-79
2023/07/02 07:01:11;;;;;;;0.30;0.30;;;18.90;99.90;;;;;;4437217;32;20094;-76
2023/07/02 07:03:37;;;;;;;0.30;0.30;;;18.90;99.90;;;;;;4439316;32;20073;-76
2023/07/02 07:06:02;;;;;;;0.30;0.30;;;18.90;99.90;;;;;;4443946;32;20106;-77
2023/07/02 07:08:28;;;;;;;0.40;0.40;;;19.00;99.90;;;;;;4438690;32;20057;-75
2023/07/02 07:10:54;;;;;;;0.52;0.52;;;19.10;99.90;;;;;;4440483;32;20107;-76
2023/07/02 07:13:20;;;;;;;0.32;0.32;;;19.10;99.90;;;;;;4438277;32;20057;-78
2023/07/02 07:15:46;;;;;;;0.40;0.40;;;19.20;99.90;;;;;;4439240;32;20509;-75
2023/07/02 07:18:12;;;;;;;0.30;0.30;;;19.20;99.90;;;;;;4438004;32;20065;-75
2023/07/02 07:20:39;;;;;;;0.50;0.50;;;19.10;99.90;;;;;;4434985;32;20097;-75
2023/07/02 07:23:05;;;;;;;0.40;0.40;;;19.00;99.90;;;;;;4439285;32;20066;-75
2023/07/02 07:25:31;;;;;;;0.28;0.28;;;19.00;99.90;;;;;;4435172;32;20100;-76
2023/07/02 07:27:59;;;;;;;0.88;0.85;;;19.00;99.90;;;;;;4437872;32;20092;-77
2023/07/02 07:30:25;;;;;;;0.43;0.37;;;19.30;99.90;;;;;;4436551;32;20169;-76
2023/07/02 07:32:51;;;;;;;0.22;0.22;;;19.40;99.90;;;;;;4436496;32;20116;-76
2023/07/02 07:35:18;;;;;;;0.90;0.82;;;19.50;99.90;;;;;;4434309;32;20096;-76
2023/07/02 07:37:44;;;;;;;0.30;0.30;;;19.60;99.90;;;;;;4436587;32;20930;-76
2023/07/02 07:40:09;;;;;;;0.30;0.30;;;19.80;99.90;;;;;;4436230;32;20089;-75
2023/07/02 07:42:35;;;;;;;2.53;0.40;;;19.70;99.90;;;;;;4439451;32;20680;-75
2023/07/02 07:45:02;;;;;;;0.30;0.30;;;19.70;99.90;;;;;;4437227;32;20084;-76
2023/07/02 07:47:28;;;;;;;0.35;0.32;;;19.50;99.90;;;;;;4435847;32;20077;-75
2023/07/02 07:49:54;;;;;;;0.47;0.47;;;19.30;99.90;;;;;;4439105;32;20118;-75
2023/07/02 07:52:20;;;;;;;0.40;0.40;;;19.20;99.90;;;;;;4432965;32;20120;-77
2023/07/02 07:54:45;;;;;;;1.02;0.45;;;19.30;99.90;;;;;;4438135;32;20281;-76
2023/07/02 07:57:11;;;;;;;0.30;0.30;;;19.20;99.90;;;;;;4435578;32;21494;-76
2023/07/02 07:59:36;;;;;;;0.62;0.50;;;19.20;99.90;;;;;;4435675;32;20061;-75
2023/07/02 08:02:02;;;;;;;0.30;0.30;;;19.10;99.90;;;;;;4438376;32;20077;-75
2023/07/02 08:04:29;;;;;;;1.20;0.88;;;19.00;99.90;;;;;;4435910;32;20092;-77
2023/07/02 08:06:54;;;;;;;0.30;0.30;;;19.00;99.90;;;;;;4436964;32;20060;-75
2023/07/02 08:09:20;;;;;;;0.60;0.52;;;18.90;99.90;;;;;;4435382;32;20124;-76
2023/07/02 08:11:46;;;;;;;0.40;0.40;;;18.90;99.90;;;;;;4434376;32;20648;-75
2023/07/02 08:14:13;;;;;;;0.30;0.30;;;18.80;99.90;;;;;;4434915;32;20161;-75
2023/07/02 08:16:38;;;;;;;0.75;0.40;;;18.90;99.90;;;;;;4435539;32;20088;-77
2023/07/02 08:19:05;;;;;;;0.30;0.30;;;18.90;99.90;;;;;;4437971;32;20151;-76
2023/07/02 08:21:30;;;;;;;0.30;0.30;;;18.90;99.90;;;;;;4436730;32;20061;-76
2023/07/02 08:23:57;;;;;;;28.52;2.37;;;18.90;99.90;;;;;;4435189;32;20086;-76
2023/07/02 08:26:23;;;;;;;0.40;0.40;;;18.90;99.90;;;;;;4434248;32;20445;-75
2023/07/02 08:28:48;;;;;;;1.02;0.65;;;18.90;99.90;;;;;;4434170;32;20098;-76
2023/07/02 08:31:14;;;;;;;0.50;0.35;;;18.70;99.90;;;;;;4436792;32;20073;-78
2023/07/02 08:33:40;;;;;;;0.90;0.73;;;18.70;99.90;;;;;;4441326;32;20089;-79
2023/07/02 08:36:06;;;;;;;3.17;1.25;;;18.60;99.90;;;;;;4433033;32;20508;-78
2023/07/02 08:38:31;;;;;;;0.80;0.50;;;18.50;99.90;;;;;;4435579;32;20094;-76
2023/07/02 08:40:58;;;;;;;0.55;0.55;;;18.50;99.90;;;;;;4434267;32;20120;-75
2023/07/02 08:43:26;;;;;;;0.30;0.30;;;18.60;99.90;;;;;;4432285;32;20502;-77
2023/07/02 08:45:52;;;;;;;0.30;0.30;;;18.60;99.90;;;;;;4436474;32;20085;-77
2023/07/02 08:48:22;;;;;;;6.45;1.95;;;18.60;99.90;;;;;;4439556;32;20066;-77
2023/07/02 08:50:48;;;;;;;1.25;0.60;;;18.60;99.90;;;;;;4439171;32;20070;-76
2023/07/02 08:53:14;;;;;;;0.40;0.40;;;18.50;99.90;;;;;;4441149;32;20105;-75
2023/07/02 08:55:40;;;;;;;0.30;0.30;;;18.60;99.90;;;;;;4438656;32;20061;-76
2023/07/02 08:58:05;;;;;;;0.50;0.50;;;18.60;99.90;;;;;;4441377;32;20061;-76
2023/07/02 09:00:35;;;;;;;0.90;0.47;;;18.50;99.90;;;;;;4446519;32;20093;-76
2023/07/02 09:03:12;;;;;;;0.50;0.50;;;18.60;99.90;;;;;;4440579;32;20128;-78
2023/07/02 09:05:51;;;;;;;10.45;0.82;;;18.70;99.90;;;;;;4437870;32;20512;-76
2023/07/02 09:08:26;;;;;;;0.50;0.50;;;18.70;99.90;;;;;;4441132;32;20089;-77
2023/07/02 09:10:51;;;;;;;0.30;0.30;;;18.70;99.90;;;;;;4441715;32;20073;-75
2023/07/02 09:13:17;;;;;;;0.32;0.32;;;18.80;99.90;;;;;;4441570;32;20080;-76
2023/07/02 09:15:43;;;;;;;0.50;0.50;;;18.80;99.90;;;;;;4442472;32;20336;-75
2023/07/02 09:18:18;;;;;;;0.40;0.40;;;18.80;99.90;;;;;;4443761;32;20081;-79
2023/07/02 09:20:44;;;;;;;0.40;0.40;;;18.80;99.90;;;;;;4442741;32;20265;-78
2023/07/02 09:23:11;;;;;;;0.30;0.30;;;18.80;99.90;;;;;;4440541;32;20068;-77
2023/07/02 09:25:38;;;;;;;0.37;0.37;;;18.90;99.90;;;;;;4442707;32;20080;-77
2023/07/02 09:28:23;;;;;;;0.52;0.52;;;18.90;99.90;;;;;;4442944;32;20143;-76
2023/07/02 09:30:56;;;;;;;3.30;1.02;;;18.80;99.90;;;;;;4444164;32;20065;-76
2023/07/02 09:33:24;;;;;;;0.40;0.40;;;18.80;99.90;;;;;;4443198;32;20444;-77
2023/07/02 09:35:51;;;;;;;12.40;0.68;;;18.90;99.90;;;;;;4440376;32;20064;-76
2023/07/02 09:38:18;;;;;;;0.40;0.40;;;18.80;99.90;;;;;;4440943;32;20088;-76
2023/07/02 09:40:47;;;;;;;0.43;0.43;;;18.90;99.90;;;;;;4444067;32;20103;-77
2023/07/02 09:43:14;;;;;;;0.30;0.30;;;19.00;99.90;;;;;;4439156;32;20101;-75
2023/07/02 09:45:43;;;;;;;1.65;0.68;;;19.00;99.90;;;;;;4437294;32;20140;-75
2023/07/02 09:48:10;;;;;;;0.82;0.50;;;19.20;99.90;;;;;;4443608;32;20134;-78
2023/07/02 09:50:38;;;;;;;0.40;0.40;;;19.30;99.90;;;;;;4444993;32;20470;-79
2023/07/02 09:53:05;;;;;;;0.40;0.40;;;19.50;99.90;;;;;;4442366;32;20497;-76
2023/07/02 09:55:32;;;;;;;0.47;0.47;;;19.50;99.90;;;;;;4443827;32;20685;-77
2023/07/02 09:57:57;;;;;;;1.08;0.55;;;19.40;99.90;;;;;;4444742;32;20122;-76
2023/07/02 10:00:23;;;;;;;0.50;0.50;;;19.30;99.90;;;;;;4448148;32;20077;-75
2023/07/02 10:02:49;;;;;;;2.30;1.35;;;19.40;99.90;;;;;;4436522;32;20289;-76
2023/07/02 10:05:32;;;;;;;0.30;0.30;;;19.40;99.90;;;;;;4440497;32;20698;-77
2023/07/02 10:07:59;;;;;;;0.85;0.85;;;19.50;99.90;;;;;;4439816;32;20082;-76
2023/07/02 10:10:29;;;;;;;0.40;0.40;;;19.50;99.90;;;;;;4442793;32;20367;-77
2023/07/02 10:12:55;;;;;;;0.68;0.45;;;19.60;99.90;;;;;;4439852;32;20116;-78
2023/07/02 10:15:29;;;;;;;3.00;0.37;;;19.90;99.90;;;;;;4443090;32;20097;-78
2023/07/02 10:17:58;;;;;;;0.28;0.28;;;20.20;99.90;;;;;;4440203;32;20089;-78
2023/07/02 10:20:40;;;;;;;0.22;0.22;;;20.40;99.90;;;;;;4443696;32;20105;-77
2023/07/02 10:23:07;;;;;;;2.65;0.93;;;20.70;99.90;;;;;;4438701;32;20128;-76
2023/07/02 10:25:37;;;;;;;0.55;0.55;;;21.00;99.90;;;;;;4443397;32;20080;-77
2023/07/02 10:28:15;;;;;;;6.25;0.70;;;21.10;99.90;;;;;;4439532;32;20112;-75
2023/07/02 10:30:40;;;;;;;1.23;0.40;;;21.10;99.90;;;;;;4436059;32;20136;-78
2023/07/02 10:33:15;;;;;;;0.88;0.60;;;21.10;99.90;;;;;;4437649;32;20084;-77
2023/07/02 10:35:44;;;;;;;3.83;1.12;;;21.30;99.90;;;;;;4438225;32;20077;-76
2023/07/02 10:38:15;;;;;;;0.68;0.68;;;21.40;99.90;;;;;;4437722;32;20104;-77
2023/07/02 10:40:42;;;;;;;1.50;0.68;;;21.60;99.90;;;;;;4439438;32;20076;-77
2023/07/02 10:43:08;;;;;;;0.73;0.73;;;21.50;99.90;;;;;;4438125;32;20072;-77
2023/07/02 10:45:35;;;;;;;0.62;0.62;;;21.60;99.90;;;;;;4434875;32;20116;-76
2023/07/02 10:48:04;;;;;;;8.73;1.85;;;21.60;99.90;;;;;;4437933;32;20073;-76
2023/07/02 10:50:30;;;;;;;0.40;0.40;;;21.60;99.90;;;;;;4436733;32;20081;-76
2023/07/02 10:52:56;;;;;;;0.70;0.70;;;21.80;99.90;;;;;;4435436;32;20100;-75
2023/07/02 10:55:24;;;;;;;0.40;0.40;;;22.10;99.90;;;;;;4438577;32;20081;-79
2023/07/02 10:58:01;;;;;;;0.30;0.30;;;22.20;99.90;;;;;;4434909;32;20093;-77
2023/07/02 11:00:29;;;;;;;0.37;0.37;;;22.50;99.90;;;;;;4437840;32;20396;-75
2023/07/02 11:02:54;;;;;;;0.40;0.40;;;22.30;99.90;;;;;;4436978;32;20114;-76
2023/07/02 11:05:20;;;;;;;0.57;0.57;;;22.10;99.90;;;;;;4435054;32;20287;-75
2023/07/02 11:07:45;;;;;;;0.52;0.52;;;21.70;99.90;;;;;;4438467;32;20076;-75
2023/07/02 11:10:18;;;;;;;0.52;0.52;;;21.70;99.90;;;;;;4442247;32;20497;-75
2023/07/02 11:12:45;;;;;;;11.18;0.73;;;21.90;99.90;;;;;;4441606;32;20098;-79
2023/07/02 11:15:12;;;;;;;1.73;0.90;;;22.30;99.90;;;;;;4441553;32;20517;-75
2023/07/02 11:17:40;;;;;;;0.60;0.60;;;22.80;99.90;;;;;;4440610;32;20074;-75
2023/07/02 11:20:08;;;;;;;0.73;0.60;;;23.20;99.90;;;;;;4441043;32;20398;-76
2023/07/02 11:22:36;;;;;;;0.40;0.40;;;23.30;98.90;;;;;;4439834;32;20100;-75
2023/07/02 11:25:11;;;;;;;0.60;0.30;;;23.30;98.60;;;;;;4446731;32;20098;-78
2023/07/02 11:27:37;;;;;;;0.20;0.20;;;23.30;98.80;;;;;;4436977;32;20097;-75
2023/07/02 11:30:03;;;;;;;0.75;0.75;;;23.30;97.80;;;;;;4439071;32;20085;-76
2023/07/02 11:32:28;;;;;;;0.40;0.40;;;23.50;96.90;;;;;;4434004;32;20089;-74
2023/07/02 11:34:54;;;;;;;0.35;0.35;;;23.60;95.80;;;;;;4436326;32;20117;-79
2023/07/02 11:37:20;;;;;;;0.37;0.37;;;23.80;96.20;;;;;;4437410;32;20077;-76
2023/07/02 11:39:45;;;;;;;0.77;0.77;;;24.10;96.60;;;;;;4440897;32;20085;-75
2023/07/02 11:42:11;;;;;;;2.37;0.85;;;24.40;97.10;;;;;;4438045;32;20073;-78
2023/07/02 11:44:36;;;;;;;8.48;0.55;;;24.30;96.70;;;;;;4437939;32;20092;-75
2023/07/02 11:47:02;;;;;;;0.40;0.40;;;23.90;97.40;;;;;;4436892;32;87049;-75
2023/07/02 11:49:30;;;;;;;1.27;0.70;;;23.60;96.70;;;;;;4438316;32;20065;-76
2023/07/02 11:51:55;;;;;;;5.47;1.48;;;23.10;97.10;;;;;;4438241;32;20116;-79
2023/07/02 11:54:21;;;;;;;1.25;0.70;;;22.80;98.10;;;;;;4436948;32;20086;-75
2023/07/02 11:56:47;;;;;;;0.55;0.50;;;22.60;95.70;;;;;;4438583;32;20082;-76
2023/07/02 11:59:13;;;;;;;0.20;0.20;;;23.20;94.90;;;;;;4437820;32;20081;-74
2023/07/02 12:01:38;;;;;;;0.45;0.45;;;23.70;94.10;;;;;;4436578;32;20592;-76
2023/07/02 12:04:07;;;;;;;0.43;0.43;;;24.20;93.60;;;;;;4437665;32;20143;-75
2023/07/02 12:06:34;;;;;;;0.40;0.40;;;24.50;93.10;;;;;;4438927;32;20852;-77
2023/07/02 12:08:59;;;;;;;0.98;0.70;;;24.90;92.90;;;;;;4435080;32;20086;-76
2023/07/02 12:11:26;;;;;;;4.50;0.73;;;25.00;93.20;;;;;;4437002;32;20548;-74
2023/07/02 12:13:51;;;;;;;0.32;0.32;;;24.90;92.70;;;;;;4438155;32;20908;-75
2023/07/02 12:16:17;;;;;;;0.32;0.32;;;24.80;92.40;;;;;;4438684;32;20109;-76
2023/07/02 12:18:42;;;;;;;1.17;0.80;;;25.20;91.80;;;;;;4439518;32;20068;-75
2023/07/02 12:21:09;;;;;;;0.20;0.20;;;25.80;91.30;;;;;;4433337;32;20066;-75
2023/07/02 12:23:34;;;;;;;2.28;1.33;;;25.90;90.80;;;;;;4433692;32;21022;-75
2023/07/02 12:26:00;;;;;;;1.20;0.52;;;25.90;89.80;;;;;;4436339;32;20077;-76
2023/07/02 12:28:25;;;;;;;2.28;0.98;;;25.20;90.00;;;;;;4437759;32;20398;-75
2023/07/02 12:30:51;;;;;;;0.20;0.20;;;24.60;90.80;;;;;;4439989;32;20137;-79
2023/07/02 12:33:16;;;;;;;0.95;0.50;;;24.40;90.90;;;;;;4437106;32;20090;-78
2023/07/02 12:35:42;;;;;;;1.50;0.57;;;24.10;92.10;;;;;;4434890;32;20539;-75
2023/07/02 12:38:08;;;;;;;0.75;0.62;;;25.00;90.60;;;;;;4432452;32;20531;-77
2023/07/02 12:40:34;;;;;;;0.35;0.35;;;25.40;90.10;;;;;;4434836;32;20069;-75
2023/07/02 12:42:59;;;;;;;0.35;0.30;;;26.40;90.20;;;;;;4437342;32;20105;-76